Time;durP1;ratioP1;P1;durP2;ratioP2;P2;SDS_P1;SDS_P2;PMS_P1;PMS_P2;Temp;Humidity;BMP_temperature;BMP_pressure;BME280_temperature;BME280_humidity;BME280_pressure;Samples;Min_cycle;Max_cycle;Signal;HPM_P1;HPM_P2
2021/12/05 00:19:09;;;;;;;13.73;5.75;;;-1.30;99.90;;;;;;20794649;28;20041;-55
2021/12/05 00:50:01;;;;;;;;;;;-1.00;99.90;;;;;;20809241;28;20030;-50
2021/12/05 01:00:41;;;;;;;7.97;4.22;;;-0.90;99.90;;;;;;20807745;28;19932;-49
2021/12/05 01:20:45;;;;;;;4.60;2.53;;;-0.70;99.90;;;;;;20741109;28;20290;-49
2021/12/05 01:51:19;;;;;;;6.20;4.10;;;-0.50;99.90;;;;;;20803668;28;20049;-50
2021/12/05 02:02:06;;;;;;;4.97;3.13;;;-0.60;99.90;;;;;;20803089;28;20041;-50
2021/12/05 02:12:08;;;;;;;5.78;3.20;;;-0.60;99.90;;;;;;20833215;28;20038;-54
2021/12/05 02:53:31;;;;;;;3.67;2.28;;;-0.40;99.90;;;;;;20800155;28;20103;-51
2021/12/05 03:03:36;;;;;;;3.70;2.15;;;-0.40;99.90;;;;;;20799917;28;20030;-50
2021/12/05 03:13:40;;;;;;;3.47;2.00;;;-0.50;99.90;;;;;;20800681;28;20037;-50
2021/12/05 03:23:45;;;;;;;4.35;1.70;;;-0.40;99.90;;;;;;20783362;28;20046;-50
2021/12/05 03:33:51;;;;;;;9.18;3.70;;;-0.40;99.90;;;;;;20810295;28;20443;-51
2021/12/05 03:43:56;;;;;;;3.63;2.33;;;-0.60;99.90;;;;;;20814008;28;20033;-51
2021/12/05 03:54:01;;;;;;;2.95;1.77;;;-0.60;99.90;;;;;;20813324;28;20093;-49
2021/12/05 04:04:05;;;;;;;4.47;3.20;;;-0.40;99.90;;;;;;20812362;28;20076;-51
2021/12/05 04:14:11;;;;;;;7.90;4.20;;;-0.50;99.90;;;;;;20795388;28;20470;-51
2021/12/05 04:24:15;;;;;;;3.97;1.95;;;-0.80;99.90;;;;;;20810912;28;20470;-51
2021/12/05 04:34:18;;;;;;;6.15;3.13;;;-0.80;99.90;;;;;;20826804;28;20115;-53
2021/12/05 04:44:22;;;;;;;4.75;2.63;;;-0.80;99.90;;;;;;20809364;28;20092;-50
2021/12/05 04:54:26;;;;;;;5.20;3.20;;;-0.90;99.90;;;;;;20808356;28;20030;-49
2021/12/05 05:04:29;;;;;;;2.83;1.65;;;-0.90;99.90;;;;;;20807649;28;20508;-48
2021/12/05 05:14:33;;;;;;;2.63;1.42;;;-0.70;99.90;;;;;;20776587;28;20037;-48
2021/12/05 05:25:06;;;;;;;0.60;0.30;;;-0.50;99.90;;;;;;20724309;28;20103;-49
2021/12/05 05:46:08;;;;;;;;;;;-0.40;99.90;;;;;;20804665;28;20041;-50
2021/12/05 05:55:45;;;;;;;0.40;0.20;;;-0.30;99.90;;;;;;20812235;28;20386;-49
2021/12/05 06:06:01;;;;;;;0.40;0.15;;;-0.30;99.90;;;;;;20804220;28;20041;-48
2021/12/05 06:16:06;;;;;;;4.13;2.13;;;-0.20;99.90;;;;;;20802514;28;20038;-52
2021/12/05 06:26:13;;;;;;;10.07;4.55;;;-0.30;99.90;;;;;;20801322;28;20037;-50
2021/12/05 06:46:39;;;;;;;2.97;1.85;;;-1.60;99.90;;;;;;20800253;28;20041;-48
2021/12/05 06:56:41;;;;;;;1.25;0.65;;;-1.60;99.90;;;;;;20799839;28;20045;-49
2021/12/05 07:06:44;;;;;;;0.47;0.20;;;-1.20;99.90;;;;;;20807845;28;20179;-50
2021/12/05 07:17:01;;;;;;;1.10;0.30;;;-1.00;99.90;;;;;;20765309;28;20041;-48
2021/12/05 07:47:43;;;;;;;1.10;0.60;;;0.00;99.90;;;;;;20497294;28;20274;-49
2021/12/05 07:58:10;;;;;;;1.35;0.40;;;0.30;99.90;;;;;;20480687;28;20110;-48
2021/12/05 08:18:45;;;;;;;0.80;0.45;;;0.80;99.90;;;;;;20375757;28;20050;-56
2021/12/05 08:29:03;;;;;;;0.73;0.40;;;1.80;99.90;;;;;;20494703;28;20043;-57
2021/12/05 09:52:03;;;;;;;2.90;0.30;;;1.60;99.90;;;;;;20735578;28;20549;-48
2021/12/05 10:12:55;;;;;;;0.13;0.10;;;1.20;99.90;;;;;;20716211;28;20041;-52
2021/12/05 10:43:35;;;;;;;2.90;1.88;;;1.60;99.90;;;;;;20799853;28;20071;-50
2021/12/05 10:53:56;;;;;;;3.00;1.77;;;1.80;99.90;;;;;;20802236;28;20045;-49
2021/12/05 11:04:04;;;;;;;4.57;1.98;;;2.60;99.90;;;;;;20799905;28;20111;-48
2021/12/05 11:14:16;;;;;;;0.30;0.20;;;2.10;99.90;;;;;;20799518;28;20037;-49
2021/12/05 11:24:26;;;;;;;0.65;0.20;;;1.60;99.90;;;;;;20799135;28;20033;-50
2021/12/05 11:34:29;;;;;;;0.63;0.17;;;1.00;99.90;;;;;;20798224;28;20529;-53
2021/12/05 11:44:33;;;;;;;1.80;0.20;;;1.10;99.90;;;;;;20798987;28;20033;-51
2021/12/05 11:54:43;;;;;;;1.40;0.30;;;1.60;99.90;;;;;;20807747;28;20076;-50
2021/12/05 12:04:46;;;;;;;0.20;0.10;;;1.90;99.90;;;;;;20811415;28;20477;-51
2021/12/05 12:14:48;;;;;;;0.08;0.08;;;2.00;99.90;;;;;;20810974;28;20482;-49
2021/12/05 12:24:57;;;;;;;0.10;0.00;;;2.30;99.90;;;;;;20810202;28;20052;-51
2021/12/05 12:35:13;;;;;;;0.50;0.30;;;2.50;99.90;;;;;;20809115;28;20050;-48
2021/12/05 12:45:18;;;;;;;1.23;0.22;;;2.20;99.90;;;;;;20808698;28;20103;-50
2021/12/05 12:55:27;;;;;;;0.60;0.10;;;1.60;99.90;;;;;;20807638;28;20037;-48
2021/12/05 13:15:53;;;;;;;0.75;0.30;;;1.70;99.90;;;;;;20764326;28;20112;-58
2021/12/05 13:26:18;;;;;;;0.85;0.50;;;1.30;99.90;;;;;;20723303;28;20038;-58
2021/12/05 13:36:32;;;;;;;0.73;0.40;;;1.00;99.90;;;;;;20767111;28;20041;-59
2021/12/05 13:46:39;;;;;;;0.50;0.20;;;0.70;99.90;;;;;;20803337;28;20037;-58
2021/12/05 13:56:44;;;;;;;0.50;0.30;;;0.90;99.90;;;;;;20786203;28;20088;-59
2021/12/05 14:07:01;;;;;;;0.98;0.30;;;0.80;99.90;;;;;;20802150;28;20041;-58
2021/12/05 14:17:19;;;;;;;1.50;0.60;;;0.70;99.90;;;;;;20801100;28;20037;-59
2021/12/05 14:27:31;;;;;;;0.82;0.30;;;0.50;99.90;;;;;;20800808;28;20445;-58
2021/12/05 14:37:35;;;;;;;0.60;0.20;;;0.40;99.90;;;;;;20799749;28;20087;-56
2021/12/05 14:47:41;;;;;;;1.02;0.38;;;0.20;99.90;;;;;;20799521;28;20432;-58
2021/12/05 14:57:52;;;;;;;0.38;0.03;;;0.00;99.90;;;;;;20799186;28;20041;-50
2021/12/05 15:08:13;;;;;;;0.20;0.10;;;-0.10;99.90;;;;;;20799388;28;20038;-51
2021/12/05 15:18:18;;;;;;;1.73;0.40;;;-0.30;99.90;;;;;;20736202;28;20037;-48
2021/12/05 15:28:22;;;;;;;0.00;0.00;;;-0.60;99.90;;;;;;20726213;28;20293;-48
2021/12/05 15:38:29;;;;;;;0.30;0.20;;;-1.10;99.90;;;;;;20793774;28;20079;-48
2021/12/05 15:48:34;;;;;;;0.50;0.25;;;-1.30;99.90;;;;;;20829258;28;20041;-51
2021/12/05 15:58:45;;;;;;;3.80;1.60;;;-2.10;99.90;;;;;;20795931;28;20045;-48
2021/12/05 16:08:50;;;;;;;1.65;0.55;;;-2.50;99.90;;;;;;20810967;28;20041;-48
2021/12/05 16:18:56;;;;;;;0.15;0.10;;;-2.80;99.90;;;;;;20810386;28;20037;-49
2021/12/05 16:29:05;;;;;;;0.88;0.20;;;-2.90;99.90;;;;;;20810090;28;20083;-49
2021/12/05 16:39:14;;;;;;;0.47;0.20;;;-2.70;99.90;;;;;;20809102;28;20083;-48
2021/12/05 16:49:20;;;;;;;0.68;0.20;;;-2.00;99.90;;;;;;20809691;28;20076;-48
2021/12/05 16:59:56;;;;;;;0.30;0.15;;;-2.80;99.90;;;;;;20791419;28;20037;-48
2021/12/05 17:10:27;;;;;;;2.03;0.20;;;-3.20;99.90;;;;;;20603500;28;20062;-53
2021/12/05 17:20:36;;;;;;;0.65;0.13;;;-3.40;99.90;;;;;;20649001;28;20433;-49
2021/12/05 17:31:01;;;;;;;0.98;0.20;;;-3.20;99.90;;;;;;20649625;28;20134;-49
2021/12/05 17:41:05;;;;;;;0.40;0.10;;;-3.10;99.90;;;;;;20613191;28;20104;-48
2021/12/05 17:51:09;;;;;;;0.13;0.00;;;-3.40;99.90;;;;;;20721362;28;20062;-48
2021/12/05 18:11:35;;;;;;;0.03;0.00;;;-3.00;99.90;;;;;;20721560;28;20104;-48
2021/12/05 18:21:40;;;;;;;0.32;0.10;;;-3.00;99.90;;;;;;20719406;28;20121;-52
2021/12/05 18:31:47;;;;;;;0.40;0.10;;;-2.80;99.90;;;;;;20725558;28;20071;-49
2021/12/05 18:41:52;;;;;;;1.23;0.03;;;-2.80;99.90;;;;;;20800358;28;20083;-50
2021/12/05 18:51:58;;;;;;;1.05;0.00;;;-3.10;99.90;;;;;;20799508;28;20068;-49
2021/12/05 19:12:23;;;;;;;;;;;-3.70;99.90;;;;;;20803008;28;20077;-49
2021/12/05 19:22:32;;;;;;;0.30;0.05;;;-3.90;99.90;;;;;;20733480;28;19913;-48
2021/12/05 19:32:34;;;;;;;0.50;0.03;;;-3.90;99.90;;;;;;20745079;28;20049;-48
2021/12/05 19:42:37;;;;;;;0.40;0.08;;;-4.10;99.90;;;;;;20815771;28;20474;-50
2021/12/05 19:52:41;;;;;;;0.20;0.00;;;-4.30;99.90;;;;;;20813553;28;20037;-49
2021/12/05 20:02:46;;;;;;;0.00;0.00;;;-4.50;99.90;;;;;;20813079;28;20539;-52
2021/12/05 20:12:49;;;;;;;0.08;0.00;;;-4.70;99.90;;;;;;20812445;28;20033;-48
2021/12/05 20:22:53;;;;;;;1.35;0.00;;;-4.20;99.90;;;;;;20795311;28;20068;-48
2021/12/05 20:32:58;;;;;;;0.32;0.00;;;-4.00;99.90;;;;;;20810471;28;20107;-50
2021/12/05 20:43:09;;;;;;;0.10;0.00;;;-4.20;99.90;;;;;;20810402;28;20406;-51
2021/12/05 20:53:14;;;;;;;0.22;0.00;;;-4.00;99.90;;;;;;20808898;28;20096;-50
2021/12/05 21:03:18;;;;;;;0.00;0.00;;;-4.00;99.90;;;;;;20826338;28;20037;-50
2021/12/05 21:13:21;;;;;;;1.10;0.03;;;-4.20;99.90;;;;;;20787499;28;20091;-47
2021/12/05 21:23:24;;;;;;;0.10;0.00;;;-4.30;99.90;;;;;;20724207;28;20042;-48
2021/12/05 21:33:28;;;;;;;0.10;0.10;;;-4.40;99.90;;;;;;20742749;28;20073;-48
2021/12/05 21:43:35;;;;;;;0.55;0.10;;;-4.30;99.90;;;;;;20806220;28;20034;-49
2021/12/05 21:53:40;;;;;;;0.50;0.05;;;-4.00;99.90;;;;;;20804582;28;20033;-48
2021/12/05 22:03:43;;;;;;;0.30;0.10;;;-3.80;99.90;;;;;;20803569;28;20056;-48
2021/12/05 22:13:46;;;;;;;0.20;0.10;;;-3.60;99.90;;;;;;20802998;28;20037;-50
2021/12/05 22:23:56;;;;;;;0.32;0.20;;;-3.80;99.90;;;;;;20802240;28;20091;-49
2021/12/05 22:34:02;;;;;;;0.68;0.20;;;-3.50;99.90;;;;;;20801111;28;20099;-50
2021/12/05 22:44:06;;;;;;;1.38;0.30;;;-3.20;99.90;;;;;;20801332;28;20038;-52
2021/12/05 22:54:09;;;;;;;0.40;0.20;;;-3.20;99.90;;;;;;20800555;28;20033;-48
2021/12/05 23:04:15;;;;;;;0.47;0.20;;;-3.00;99.90;;;;;;20800197;28;20092;-48
2021/12/05 23:14:18;;;;;;;0.30;0.13;;;-2.50;99.90;;;;;;20770304;28;20108;-49
2021/12/05 23:24:28;;;;;;;1.65;0.10;;;-2.10;99.90;;;;;;20718108;28;20042;-49
2021/12/05 23:34:31;;;;;;;0.20;0.20;;;-1.80;99.90;;;;;;20742781;28;20045;-48
2021/12/05 23:44:34;;;;;;;0.40;0.20;;;-1.60;99.90;;;;;;20800271;28;20033;-49
2021/12/05 23:54:39;;;;;;;0.50;0.20;;;-1.40;99.90;;;;;;20813562;28;20397;-49
